sensor_id;sensor_type;location;lat;lon;timestamp;P1;durP1;ratioP1;P2;durP2;ratioP2
37955;SDS011;23776;51.592;7.180;2023-02-04T00:00:49;28.60;;;4.13;;
37955;SDS011;23776;51.592;7.180;2023-02-04T00:03:15;35.78;;;4.80;;
37955;SDS011;23776;51.592;7.180;2023-02-04T00:05:42;27.75;;;4.22;;
37955;SDS011;23776;51.592;7.180;2023-02-04T00:08:08;30.20;;;4.80;;
37955;SDS011;23776;51.592;7.180;2023-02-04T00:10:34;30.42;;;5.25;;
37955;SDS011;23776;51.592;7.180;2023-02-04T00:13:01;28.73;;;4.88;;
37955;SDS011;23776;51.592;7.180;2023-02-04T00:15:30;37.88;;;5.65;;
37955;SDS011;23776;51.592;7.180;2023-02-04T00:17:55;39.00;;;5.20;;
37955;SDS011;23776;51.592;7.180;2023-02-04T00:20:21;32.92;;;4.78;;
37955;SDS011;23776;51.592;7.180;2023-02-04T00:22:47;22.20;;;4.60;;
37955;SDS011;23776;51.592;7.180;2023-02-04T00:25:13;30.52;;;5.30;;
37955;SDS011;23776;51.592;7.180;2023-02-04T00:27:39;29.15;;;4.70;;
37955;SDS011;23776;51.592;7.180;2023-02-04T00:30:05;33.38;;;4.38;;
37955;SDS011;23776;51.592;7.180;2023-02-04T00:32:31;32.00;;;5.07;;
37955;SDS011;23776;51.592;7.180;2023-02-04T00:34:56;35.20;;;4.85;;
37955;SDS011;23776;51.592;7.180;2023-02-04T00:37:22;31.48;;;4.85;;
37955;SDS011;23776;51.592;7.180;2023-02-04T00:39:48;28.58;;;4.57;;
37955;SDS011;23776;51.592;7.180;2023-02-04T00:42:14;35.47;;;5.65;;
37955;SDS011;23776;51.592;7.180;2023-02-04T00:44:39;39.28;;;5.63;;
37955;SDS011;23776;51.592;7.180;2023-02-04T00:47:05;37.28;;;5.18;;
37955;SDS011;23776;51.592;7.180;2023-02-04T00:49:32;27.35;;;5.65;;
37955;SDS011;23776;51.592;7.180;2023-02-04T00:51:58;47.53;;;5.30;;
37955;SDS011;23776;51.592;7.180;2023-02-04T00:54:24;31.90;;;5.75;;
37955;SDS011;23776;51.592;7.180;2023-02-04T00:56:49;35.83;;;4.50;;
37955;SDS011;23776;51.592;7.180;2023-02-04T00:59:15;28.33;;;5.15;;
37955;SDS011;23776;51.592;7.180;2023-02-04T01:01:40;25.88;;;4.72;;
37955;SDS011;23776;51.592;7.180;2023-02-04T01:04:06;33.10;;;4.63;;
37955;SDS011;23776;51.592;7.180;2023-02-04T01:06:32;31.77;;;4.88;;
37955;SDS011;23776;51.592;7.180;2023-02-04T01:08:58;29.00;;;4.13;;
37955;SDS011;23776;51.592;7.180;2023-02-04T01:11:25;28.92;;;4.53;;
37955;SDS011;23776;51.592;7.180;2023-02-04T01:13:51;31.02;;;4.95;;
37955;SDS011;23776;51.592;7.180;2023-02-04T01:16:17;32.85;;;4.97;;
37955;SDS011;23776;51.592;7.180;2023-02-04T01:18:42;30.75;;;4.78;;
37955;SDS011;23776;51.592;7.180;2023-02-04T01:21:08;19.17;;;4.10;;
37955;SDS011;23776;51.592;7.180;2023-02-04T01:23:34;31.15;;;6.13;;
37955;SDS011;23776;51.592;7.180;2023-02-04T01:26:00;39.80;;;6.28;;
37955;SDS011;23776;51.592;7.180;2023-02-04T01:28:25;39.08;;;6.25;;
37955;SDS011;23776;51.592;7.180;2023-02-04T01:30:51;26.48;;;5.18;;
37955;SDS011;23776;51.592;7.180;2023-02-04T01:33:16;24.38;;;4.15;;
37955;SDS011;23776;51.592;7.180;2023-02-04T01:35:42;25.45;;;5.20;;
37955;SDS011;23776;51.592;7.180;2023-02-04T01:38:08;31.90;;;5.47;;
37955;SDS011;23776;51.592;7.180;2023-02-04T01:40:33;36.78;;;4.97;;
37955;SDS011;23776;51.592;7.180;2023-02-04T01:42:59;36.00;;;6.07;;
37955;SDS011;23776;51.592;7.180;2023-02-04T01:45:25;36.30;;;5.10;;
37955;SDS011;23776;51.592;7.180;2023-02-04T01:47:50;34.95;;;5.70;;
37955;SDS011;23776;51.592;7.180;2023-02-04T01:50:16;36.38;;;5.07;;
37955;SDS011;23776;51.592;7.180;2023-02-04T01:52:42;35.28;;;7.05;;
37955;SDS011;23776;51.592;7.180;2023-02-04T01:55:11;27.13;;;4.07;;
37955;SDS011;23776;51.592;7.180;2023-02-04T01:57:42;35.83;;;5.07;;
37955;SDS011;23776;51.592;7.180;2023-02-04T02:00:13;26.80;;;4.22;;
37955;SDS011;23776;51.592;7.180;2023-02-04T02:02:57;33.28;;;4.43;;
37955;SDS011;23776;51.592;7.180;2023-02-04T02:05:32;36.10;;;5.80;;
37955;SDS011;23776;51.592;7.180;2023-02-04T02:08:12;31.48;;;4.47;;
37955;SDS011;23776;51.592;7.180;2023-02-04T02:10:39;23.30;;;4.20;;
37955;SDS011;23776;51.592;7.180;2023-02-04T02:13:07;30.85;;;4.30;;
37955;SDS011;23776;51.592;7.180;2023-02-04T02:15:36;26.98;;;4.50;;
37955;SDS011;23776;51.592;7.180;2023-02-04T02:18:02;34.97;;;4.93;;
37955;SDS011;23776;51.592;7.180;2023-02-04T02:20:28;32.58;;;5.32;;
37955;SDS011;23776;51.592;7.180;2023-02-04T02:22:57;43.95;;;5.45;;
37955;SDS011;23776;51.592;7.180;2023-02-04T02:25:27;29.90;;;5.47;;
37955;SDS011;23776;51.592;7.180;2023-02-04T02:27:53;30.17;;;4.38;;
37955;SDS011;23776;51.592;7.180;2023-02-04T02:30:20;32.35;;;5.43;;
37955;SDS011;23776;51.592;7.180;2023-02-04T02:32:46;30.90;;;4.10;;
37955;SDS011;23776;51.592;7.180;2023-02-04T02:35:12;38.65;;;4.47;;
37955;SDS011;23776;51.592;7.180;2023-02-04T02:37:39;30.90;;;4.65;;
37955;SDS011;23776;51.592;7.180;2023-02-04T02:40:05;43.40;;;4.53;;
37955;SDS011;23776;51.592;7.180;2023-02-04T02:42:31;27.42;;;4.90;;
37955;SDS011;23776;51.592;7.180;2023-02-04T02:44:57;31.58;;;4.40;;
37955;SDS011;23776;51.592;7.180;2023-02-04T02:47:24;27.75;;;4.30;;
37955;SDS011;23776;51.592;7.180;2023-02-04T02:49:51;28.80;;;5.30;;
37955;SDS011;23776;51.592;7.180;2023-02-04T02:52:17;27.83;;;4.57;;
37955;SDS011;23776;51.592;7.180;2023-02-04T02:54:44;30.45;;;4.78;;
37955;SDS011;23776;51.592;7.180;2023-02-04T02:57:18;28.73;;;4.30;;
37955;SDS011;23776;51.592;7.180;2023-02-04T02:59:45;31.00;;;4.68;;
37955;SDS011;23776;51.592;7.180;2023-02-04T03:02:15;42.13;;;5.45;;
37955;SDS011;23776;51.592;7.180;2023-02-04T03:04:47;28.30;;;4.72;;
37955;SDS011;23776;51.592;7.180;2023-02-04T03:07:15;35.28;;;6.28;;
37955;SDS011;23776;51.592;7.180;2023-02-04T03:09:43;36.60;;;6.32;;
37955;SDS011;23776;51.592;7.180;2023-02-04T03:12:09;35.92;;;4.88;;
37955;SDS011;23776;51.592;7.180;2023-02-04T03:14:35;29.85;;;4.38;;
37955;SDS011;23776;51.592;7.180;2023-02-04T03:17:03;30.00;;;5.35;;
37955;SDS011;23776;51.592;7.180;2023-02-04T03:19:30;40.00;;;5.75;;
37955;SDS011;23776;51.592;7.180;2023-02-04T03:21:56;33.05;;;4.95;;
37955;SDS011;23776;51.592;7.180;2023-02-04T03:24:23;30.02;;;5.03;;
37955;SDS011;23776;51.592;7.180;2023-02-04T03:26:50;39.67;;;5.03;;
37955;SDS011;23776;51.592;7.180;2023-02-04T03:29:16;34.45;;;5.68;;
37955;SDS011;23776;51.592;7.180;2023-02-04T03:31:42;37.20;;;4.90;;
37955;SDS011;23776;51.592;7.180;2023-02-04T03:34:07;30.40;;;4.45;;
37955;SDS011;23776;51.592;7.180;2023-02-04T03:36:33;30.60;;;5.15;;
37955;SDS011;23776;51.592;7.180;2023-02-04T03:38:59;37.03;;;6.93;;
37955;SDS011;23776;51.592;7.180;2023-02-04T03:41:25;37.78;;;5.35;;
37955;SDS011;23776;51.592;7.180;2023-02-04T03:43:51;27.35;;;4.40;;
37955;SDS011;23776;51.592;7.180;2023-02-04T03:46:16;47.25;;;7.60;;
37955;SDS011;23776;51.592;7.180;2023-02-04T03:48:42;36.63;;;5.30;;
37955;SDS011;23776;51.592;7.180;2023-02-04T03:51:07;27.85;;;4.55;;
37955;SDS011;23776;51.592;7.180;2023-02-04T03:53:33;33.63;;;4.82;;
37955;SDS011;23776;51.592;7.180;2023-02-04T03:55:58;36.05;;;5.28;;
37955;SDS011;23776;51.592;7.180;2023-02-04T03:58:24;27.00;;;4.82;;
37955;SDS011;23776;51.592;7.180;2023-02-04T04:00:49;31.02;;;4.65;;
37955;SDS011;23776;51.592;7.180;2023-02-04T04:03:15;27.95;;;3.90;;
37955;SDS011;23776;51.592;7.180;2023-02-04T04:05:41;37.45;;;5.82;;
37955;SDS011;23776;51.592;7.180;2023-02-04T04:08:06;32.95;;;4.88;;
37955;SDS011;23776;51.592;7.180;2023-02-04T04:10:32;39.42;;;4.75;;
37955;SDS011;23776;51.592;7.180;2023-02-04T04:12:57;38.17;;;5.05;;
37955;SDS011;23776;51.592;7.180;2023-02-04T04:15:23;31.45;;;4.28;;
37955;SDS011;23776;51.592;7.180;2023-02-04T04:17:48;29.63;;;4.40;;
37955;SDS011;23776;51.592;7.180;2023-02-04T04:20:14;30.00;;;4.57;;
37955;SDS011;23776;51.592;7.180;2023-02-04T04:22:40;32.92;;;5.15;;
37955;SDS011;23776;51.592;7.180;2023-02-04T04:25:06;26.42;;;4.15;;
37955;SDS011;23776;51.592;7.180;2023-02-04T04:27:32;27.60;;;4.97;;
37955;SDS011;23776;51.592;7.180;2023-02-04T04:29:58;27.08;;;4.80;;
37955;SDS011;23776;51.592;7.180;2023-02-04T04:32:24;41.40;;;5.45;;
37955;SDS011;23776;51.592;7.180;2023-02-04T04:34:49;38.15;;;5.05;;
37955;SDS011;23776;51.592;7.180;2023-02-04T04:37:15;41.40;;;4.88;;
37955;SDS011;23776;51.592;7.180;2023-02-04T04:39:40;38.80;;;4.70;;
37955;SDS011;23776;51.592;7.180;2023-02-04T04:42:06;25.15;;;4.72;;
37955;SDS011;23776;51.592;7.180;2023-02-04T04:44:31;49.78;;;5.50;;
37955;SDS011;23776;51.592;7.180;2023-02-04T04:46:57;29.88;;;4.03;;
37955;SDS011;23776;51.592;7.180;2023-02-04T04:49:23;26.80;;;3.97;;
37955;SDS011;23776;51.592;7.180;2023-02-04T04:51:48;34.08;;;5.28;;
37955;SDS011;23776;51.592;7.180;2023-02-04T04:54:14;36.33;;;5.18;;
37955;SDS011;23776;51.592;7.180;2023-02-04T04:56:40;39.60;;;4.70;;
37955;SDS011;23776;51.592;7.180;2023-02-04T04:59:05;29.73;;;4.45;;
37955;SDS011;23776;51.592;7.180;2023-02-04T05:01:31;24.33;;;4.30;;
37955;SDS011;23776;51.592;7.180;2023-02-04T05:03:57;30.33;;;4.15;;
37955;SDS011;23776;51.592;7.180;2023-02-04T05:06:23;20.45;;;4.60;;
37955;SDS011;23776;51.592;7.180;2023-02-04T05:08:52;43.42;;;5.40;;
37955;SDS011;23776;51.592;7.180;2023-02-04T05:11:18;31.65;;;4.95;;
37955;SDS011;23776;51.592;7.180;2023-02-04T05:13:44;30.63;;;3.97;;
37955;SDS011;23776;51.592;7.180;2023-02-04T05:16:10;39.08;;;4.82;;
37955;SDS011;23776;51.592;7.180;2023-02-04T05:18:36;31.15;;;4.38;;
37955;SDS011;23776;51.592;7.180;2023-02-04T05:21:03;27.25;;;4.70;;
37955;SDS011;23776;51.592;7.180;2023-02-04T05:23:28;35.90;;;4.68;;
37955;SDS011;23776;51.592;7.180;2023-02-04T05:25:54;36.13;;;4.75;;
37955;SDS011;23776;51.592;7.180;2023-02-04T05:28:20;35.03;;;4.35;;
37955;SDS011;23776;51.592;7.180;2023-02-04T05:30:46;25.73;;;4.35;;
37955;SDS011;23776;51.592;7.180;2023-02-04T05:33:11;31.15;;;4.70;;
37955;SDS011;23776;51.592;7.180;2023-02-04T05:35:37;40.08;;;7.95;;
37955;SDS011;23776;51.592;7.180;2023-02-04T05:38:02;26.42;;;4.70;;
37955;SDS011;23776;51.592;7.180;2023-02-04T05:40:28;34.65;;;4.57;;
37955;SDS011;23776;51.592;7.180;2023-02-04T05:42:54;27.27;;;4.95;;
37955;SDS011;23776;51.592;7.180;2023-02-04T05:45:19;38.00;;;5.55;;
37955;SDS011;23776;51.592;7.180;2023-02-04T05:47:45;29.45;;;4.22;;
37955;SDS011;23776;51.592;7.180;2023-02-04T05:50:11;32.65;;;4.60;;
37955;SDS011;23776;51.592;7.180;2023-02-04T05:52:37;27.52;;;4.25;;
37955;SDS011;23776;51.592;7.180;2023-02-04T05:55:04;35.47;;;5.63;;
37955;SDS011;23776;51.592;7.180;2023-02-04T05:57:30;27.15;;;5.03;;
37955;SDS011;23776;51.592;7.180;2023-02-04T05:59:55;28.83;;;5.97;;
37955;SDS011;23776;51.592;7.180;2023-02-04T06:02:21;35.00;;;4.95;;
37955;SDS011;23776;51.592;7.180;2023-02-04T06:04:47;33.88;;;4.57;;
37955;SDS011;23776;51.592;7.180;2023-02-04T06:07:12;23.67;;;3.92;;
37955;SDS011;23776;51.592;7.180;2023-02-04T06:09:38;35.33;;;5.30;;
37955;SDS011;23776;51.592;7.180;2023-02-04T06:12:03;53.22;;;7.18;;
37955;SDS011;23776;51.592;7.180;2023-02-04T06:14:29;28.08;;;4.13;;
37955;SDS011;23776;51.592;7.180;2023-02-04T06:16:55;31.23;;;4.95;;
37955;SDS011;23776;51.592;7.180;2023-02-04T06:19:20;29.15;;;4.05;;
37955;SDS011;23776;51.592;7.180;2023-02-04T06:21:46;22.77;;;5.50;;
37955;SDS011;23776;51.592;7.180;2023-02-04T06:24:11;36.17;;;4.82;;
37955;SDS011;23776;51.592;7.180;2023-02-04T06:26:37;36.75;;;4.88;;
37955;SDS011;23776;51.592;7.180;2023-02-04T06:29:03;30.48;;;4.65;;
37955;SDS011;23776;51.592;7.180;2023-02-04T06:31:28;34.90;;;4.60;;
37955;SDS011;23776;51.592;7.180;2023-02-04T06:33:54;30.08;;;5.05;;
37955;SDS011;23776;51.592;7.180;2023-02-04T06:36:19;26.05;;;4.43;;
37955;SDS011;23776;51.592;7.180;2023-02-04T06:38:45;36.42;;;5.47;;
37955;SDS011;23776;51.592;7.180;2023-02-04T06:41:11;27.20;;;4.93;;
37955;SDS011;23776;51.592;7.180;2023-02-04T06:43:36;27.45;;;5.25;;
37955;SDS011;23776;51.592;7.180;2023-02-04T06:46:02;34.95;;;4.45;;
37955;SDS011;23776;51.592;7.180;2023-02-04T06:48:27;38.63;;;5.90;;
37955;SDS011;23776;51.592;7.180;2023-02-04T06:50:53;39.42;;;4.97;;
37955;SDS011;23776;51.592;7.180;2023-02-04T06:53:18;38.67;;;4.88;;
37955;SDS011;23776;51.592;7.180;2023-02-04T06:55:44;26.70;;;4.38;;
37955;SDS011;23776;51.592;7.180;2023-02-04T06:58:10;31.15;;;4.47;;
37955;SDS011;23776;51.592;7.180;2023-02-04T07:00:35;32.72;;;4.97;;
37955;SDS011;23776;51.592;7.180;2023-02-04T07:03:01;47.25;;;5.70;;
37955;SDS011;23776;51.592;7.180;2023-02-04T07:05:26;26.42;;;4.13;;
37955;SDS011;23776;51.592;7.180;2023-02-04T07:07:54;29.45;;;4.80;;
37955;SDS011;23776;51.592;7.180;2023-02-04T07:10:20;30.35;;;4.85;;
37955;SDS011;23776;51.592;7.180;2023-02-04T07:12:46;19.08;;;4.10;;
37955;SDS011;23776;51.592;7.180;2023-02-04T07:15:11;36.35;;;4.50;;
37955;SDS011;23776;51.592;7.180;2023-02-04T07:17:37;28.27;;;3.95;;
37955;SDS011;23776;51.592;7.180;2023-02-04T07:20:03;38.92;;;5.55;;
37955;SDS011;23776;51.592;7.180;2023-02-04T07:22:28;25.20;;;4.30;;
37955;SDS011;23776;51.592;7.180;2023-02-04T07:24:54;33.63;;;5.20;;
37955;SDS011;23776;51.592;7.180;2023-02-04T07:27:19;29.10;;;4.10;;
37955;SDS011;23776;51.592;7.180;2023-02-04T07:29:45;28.88;;;5.28;;
37955;SDS011;23776;51.592;7.180;2023-02-04T07:32:11;26.63;;;5.03;;
37955;SDS011;23776;51.592;7.180;2023-02-04T07:34:36;46.88;;;6.30;;
37955;SDS011;23776;51.592;7.180;2023-02-04T07:37:02;26.95;;;3.70;;
37955;SDS011;23776;51.592;7.180;2023-02-04T07:39:27;28.33;;;5.38;;
37955;SDS011;23776;51.592;7.180;2023-02-04T07:41:53;27.35;;;4.32;;
37955;SDS011;23776;51.592;7.180;2023-02-04T07:44:18;30.08;;;4.20;;
37955;SDS011;23776;51.592;7.180;2023-02-04T07:46:44;26.58;;;4.50;;
37955;SDS011;23776;51.592;7.180;2023-02-04T07:49:10;39.53;;;4.60;;
37955;SDS011;23776;51.592;7.180;2023-02-04T07:51:35;33.40;;;4.75;;
37955;SDS011;23776;51.592;7.180;2023-02-04T07:54:01;37.13;;;5.55;;
37955;SDS011;23776;51.592;7.180;2023-02-04T07:56:26;34.38;;;5.68;;
37955;SDS011;23776;51.592;7.180;2023-02-04T07:58:52;39.33;;;4.22;;
37955;SDS011;23776;51.592;7.180;2023-02-04T08:01:18;43.30;;;5.10;;
37955;SDS011;23776;51.592;7.180;2023-02-04T08:03:43;38.97;;;5.68;;
37955;SDS011;23776;51.592;7.180;2023-02-04T08:06:09;29.08;;;5.15;;
37955;SDS011;23776;51.592;7.180;2023-02-04T08:08:34;19.60;;;4.03;;
37955;SDS011;23776;51.592;7.180;2023-02-04T08:11:00;34.08;;;5.32;;
37955;SDS011;23776;51.592;7.180;2023-02-04T08:13:25;30.80;;;4.47;;
37955;SDS011;23776;51.592;7.180;2023-02-04T08:15:51;33.78;;;6.35;;
37955;SDS011;23776;51.592;7.180;2023-02-04T08:18:17;36.65;;;4.90;;
37955;SDS011;23776;51.592;7.180;2023-02-04T08:20:42;24.23;;;4.88;;
37955;SDS011;23776;51.592;7.180;2023-02-04T08:23:08;33.45;;;3.80;;
37955;SDS011;23776;51.592;7.180;2023-02-04T08:25:33;29.90;;;5.07;;
37955;SDS011;23776;51.592;7.180;2023-02-04T08:27:59;47.15;;;5.13;;
37955;SDS011;23776;51.592;7.180;2023-02-04T08:30:25;32.33;;;4.80;;
37955;SDS011;23776;51.592;7.180;2023-02-04T08:32:51;31.73;;;4.82;;
37955;SDS011;23776;51.592;7.180;2023-02-04T08:35:16;33.58;;;4.35;;
37955;SDS011;23776;51.592;7.180;2023-02-04T08:37:42;48.38;;;6.03;;
37955;SDS011;23776;51.592;7.180;2023-02-04T08:40:08;31.52;;;5.40;;
37955;SDS011;23776;51.592;7.180;2023-02-04T08:42:34;31.08;;;5.05;;
37955;SDS011;23776;51.592;7.180;2023-02-04T08:45:00;31.83;;;8.77;;
37955;SDS011;23776;51.592;7.180;2023-02-04T08:47:25;44.38;;;7.35;;
37955;SDS011;23776;51.592;7.180;2023-02-04T08:49:51;40.85;;;5.30;;
37955;SDS011;23776;51.592;7.180;2023-02-04T08:52:16;32.65;;;6.88;;
37955;SDS011;23776;51.592;7.180;2023-02-04T08:54:43;32.90;;;5.22;;
37955;SDS011;23776;51.592;7.180;2023-02-04T08:57:08;23.63;;;4.63;;
37955;SDS011;23776;51.592;7.180;2023-02-04T08:59:34;20.98;;;4.20;;
37955;SDS011;23776;51.592;7.180;2023-02-04T09:02:00;32.50;;;5.93;;
37955;SDS011;23776;51.592;7.180;2023-02-04T09:04:26;34.20;;;5.88;;
37955;SDS011;23776;51.592;7.180;2023-02-04T09:06:52;41.65;;;6.88;;
37955;SDS011;23776;51.592;7.180;2023-02-04T09:09:18;27.77;;;5.65;;
37955;SDS011;23776;51.592;7.180;2023-02-04T09:11:45;37.17;;;5.10;;
37955;SDS011;23776;51.592;7.180;2023-02-04T09:14:11;37.28;;;4.95;;
37955;SDS011;23776;51.592;7.180;2023-02-04T09:16:37;43.10;;;6.45;;
37955;SDS011;23776;51.592;7.180;2023-02-04T09:19:03;39.53;;;5.35;;
37955;SDS011;23776;51.592;7.180;2023-02-04T09:21:29;34.63;;;4.72;;
37955;SDS011;23776;51.592;7.180;2023-02-04T09:23:55;39.70;;;6.30;;
37955;SDS011;23776;51.592;7.180;2023-02-04T09:26:21;36.45;;;4.38;;
37955;SDS011;23776;51.592;7.180;2023-02-04T09:28:47;45.30;;;6.13;;
37955;SDS011;23776;51.592;7.180;2023-02-04T09:31:13;41.15;;;5.53;;
37955;SDS011;23776;51.592;7.180;2023-02-04T09:33:39;42.47;;;5.80;;
37955;SDS011;23776;51.592;7.180;2023-02-04T09:36:05;32.70;;;4.93;;
37955;SDS011;23776;51.592;7.180;2023-02-04T09:38:31;31.83;;;6.32;;
37955;SDS011;23776;51.592;7.180;2023-02-04T09:40:58;33.97;;;5.72;;
37955;SDS011;23776;51.592;7.180;2023-02-04T09:43:28;37.75;;;5.20;;
37955;SDS011;23776;51.592;7.180;2023-02-04T09:45:57;50.35;;;6.00;;
37955;SDS011;23776;51.592;7.180;2023-02-04T09:48:24;31.58;;;6.00;;
37955;SDS011;23776;51.592;7.180;2023-02-04T09:50:50;34.10;;;5.47;;
37955;SDS011;23776;51.592;7.180;2023-02-04T09:53:27;31.25;;;5.35;;
37955;SDS011;23776;51.592;7.180;2023-02-04T09:55:54;44.13;;;6.68;;
37955;SDS011;23776;51.592;7.180;2023-02-04T09:58:20;43.20;;;5.82;;
37955;SDS011;23776;51.592;7.180;2023-02-04T10:00:55;48.20;;;6.65;;
37955;SDS011;23776;51.592;7.180;2023-02-04T10:03:25;42.85;;;5.32;;
37955;SDS011;23776;51.592;7.180;2023-02-04T10:05:51;50.55;;;6.53;;
37955;SDS011;23776;51.592;7.180;2023-02-04T10:08:18;43.67;;;5.45;;
37955;SDS011;23776;51.592;7.180;2023-02-04T10:10:45;40.65;;;6.72;;
37955;SDS011;23776;51.592;7.180;2023-02-04T10:13:20;32.78;;;5.88;;
37955;SDS011;23776;51.592;7.180;2023-02-04T10:15:53;36.03;;;5.47;;
37955;SDS011;23776;51.592;7.180;2023-02-04T10:18:19;44.03;;;6.55;;
37955;SDS011;23776;51.592;7.180;2023-02-04T10:20:53;44.43;;;6.70;;
37955;SDS011;23776;51.592;7.180;2023-02-04T10:23:35;31.45;;;5.75;;
37955;SDS011;23776;51.592;7.180;2023-02-04T10:26:00;29.42;;;5.90;;
37955;SDS011;23776;51.592;7.180;2023-02-04T10:28:34;45.83;;;6.75;;
37955;SDS011;23776;51.592;7.180;2023-02-04T10:31:01;47.13;;;7.20;;
37955;SDS011;23776;51.592;7.180;2023-02-04T10:33:26;59.65;;;8.65;;
37955;SDS011;23776;51.592;7.180;2023-02-04T10:35:53;31.23;;;6.95;;
37955;SDS011;23776;51.592;7.180;2023-02-04T10:38:20;33.22;;;6.97;;
37955;SDS011;23776;51.592;7.180;2023-02-04T10:40:46;41.10;;;7.53;;
37955;SDS011;23776;51.592;7.180;2023-02-04T10:43:30;34.10;;;7.10;;
37955;SDS011;23776;51.592;7.180;2023-02-04T10:46:03;32.63;;;6.30;;
37955;SDS011;23776;51.592;7.180;2023-02-04T10:48:29;49.72;;;7.50;;
37955;SDS011;23776;51.592;7.180;2023-02-04T10:51:03;44.67;;;7.88;;
37955;SDS011;23776;51.592;7.180;2023-02-04T10:53:29;48.53;;;7.93;;
37955;SDS011;23776;51.592;7.180;2023-02-04T10:56:15;40.83;;;7.85;;
37955;SDS011;23776;51.592;7.180;2023-02-04T10:58:42;30.35;;;6.30;;
37955;SDS011;23776;51.592;7.180;2023-02-04T11:01:09;34.95;;;7.53;;
37955;SDS011;23776;51.592;7.180;2023-02-04T11:03:36;39.55;;;8.27;;
37955;SDS011;23776;51.592;7.180;2023-02-04T11:06:10;33.78;;;8.20;;
37955;SDS011;23776;51.592;7.180;2023-02-04T11:08:37;37.80;;;8.02;;
37955;SDS011;23776;51.592;7.180;2023-02-04T11:11:07;37.88;;;8.80;;
37955;SDS011;23776;51.592;7.180;2023-02-04T11:19:11;33.42;;;7.18;;
37955;SDS011;23776;51.592;7.180;2023-02-04T11:26:39;37.00;;;7.97;;
37955;SDS011;23776;51.592;7.180;2023-02-04T11:34:23;34.60;;;7.38;;
37955;SDS011;23776;51.592;7.180;2023-02-04T11:39:36;34.38;;;7.38;;
37955;SDS011;23776;51.592;7.180;2023-02-04T11:42:02;31.33;;;6.55;;
37955;SDS011;23776;51.592;7.180;2023-02-04T11:44:29;41.88;;;8.15;;
37955;SDS011;23776;51.592;7.180;2023-02-04T11:47:06;27.88;;;6.32;;
37955;SDS011;23776;51.592;7.180;2023-02-04T11:49:34;37.88;;;7.90;;
37955;SDS011;23776;51.592;7.180;2023-02-04T11:52:06;34.15;;;8.90;;
37955;SDS011;23776;51.592;7.180;2023-02-04T11:54:36;27.13;;;7.38;;
37955;SDS011;23776;51.592;7.180;2023-02-04T11:57:02;40.97;;;7.75;;
37955;SDS011;23776;51.592;7.180;2023-02-04T11:59:28;42.28;;;9.55;;
37955;SDS011;23776;51.592;7.180;2023-02-04T12:04:56;42.15;;;9.55;;
37955;SDS011;23776;51.592;7.180;2023-02-04T12:07:33;48.13;;;10.20;;
37955;SDS011;23776;51.592;7.180;2023-02-04T12:10:09;42.92;;;10.48;;
37955;SDS011;23776;51.592;7.180;2023-02-04T12:12:55;35.35;;;9.98;;
37955;SDS011;23776;51.592;7.180;2023-02-04T12:15:29;46.85;;;10.63;;
37955;SDS011;23776;51.592;7.180;2023-02-04T12:18:05;37.90;;;9.13;;
37955;SDS011;23776;51.592;7.180;2023-02-04T12:20:33;44.05;;;9.65;;
37955;SDS011;23776;51.592;7.180;2023-02-04T12:22:59;42.40;;;9.35;;
37955;SDS011;23776;51.592;7.180;2023-02-04T12:25:25;40.88;;;10.05;;
37955;SDS011;23776;51.592;7.180;2023-02-04T12:27:51;34.22;;;10.15;;
37955;SDS011;23776;51.592;7.180;2023-02-04T12:30:19;31.67;;;8.90;;
37955;SDS011;23776;51.592;7.180;2023-02-04T12:32:45;36.03;;;9.15;;
37955;SDS011;23776;51.592;7.180;2023-02-04T12:35:11;41.63;;;9.55;;
37955;SDS011;23776;51.592;7.180;2023-02-04T12:37:37;41.88;;;10.35;;
37955;SDS011;23776;51.592;7.180;2023-02-04T12:40:02;50.50;;;10.60;;
37955;SDS011;23776;51.592;7.180;2023-02-04T12:42:29;46.78;;;9.65;;
37955;SDS011;23776;51.592;7.180;2023-02-04T12:44:54;41.42;;;9.20;;
37955;SDS011;23776;51.592;7.180;2023-02-04T12:47:20;48.65;;;8.23;;
37955;SDS011;23776;51.592;7.180;2023-02-04T12:49:45;34.95;;;8.57;;
37955;SDS011;23776;51.592;7.180;2023-02-04T12:52:12;41.10;;;7.72;;
37955;SDS011;23776;51.592;7.180;2023-02-04T12:54:37;28.42;;;5.30;;
37955;SDS011;23776;51.592;7.180;2023-02-04T12:57:03;26.75;;;6.97;;
37955;SDS011;23776;51.592;7.180;2023-02-04T12:59:29;26.80;;;6.43;;
37955;SDS011;23776;51.592;7.180;2023-02-04T13:01:55;33.60;;;6.47;;
37955;SDS011;23776;51.592;7.180;2023-02-04T13:04:21;31.45;;;7.00;;
37955;SDS011;23776;51.592;7.180;2023-02-04T13:06:47;37.45;;;7.47;;
37955;SDS011;23776;51.592;7.180;2023-02-04T13:09:14;33.28;;;7.10;;
37955;SDS011;23776;51.592;7.180;2023-02-04T13:11:39;37.03;;;7.20;;
37955;SDS011;23776;51.592;7.180;2023-02-04T13:14:05;47.33;;;7.68;;
37955;SDS011;23776;51.592;7.180;2023-02-04T13:16:30;37.53;;;6.40;;
37955;SDS011;23776;51.592;7.180;2023-02-04T13:18:57;41.80;;;7.90;;
37955;SDS011;23776;51.592;7.180;2023-02-04T13:21:22;33.25;;;6.40;;
37955;SDS011;23776;51.592;7.180;2023-02-04T13:23:48;44.20;;;9.15;;
37955;SDS011;23776;51.592;7.180;2023-02-04T13:26:13;22.10;;;6.45;;
37955;SDS011;23776;51.592;7.180;2023-02-04T13:28:39;36.13;;;6.43;;
37955;SDS011;23776;51.592;7.180;2023-02-04T13:31:04;41.63;;;8.50;;
37955;SDS011;23776;51.592;7.180;2023-02-04T13:33:30;24.35;;;5.82;;
37955;SDS011;23776;51.592;7.180;2023-02-04T13:35:57;24.77;;;5.38;;
37955;SDS011;23776;51.592;7.180;2023-02-04T13:38:22;22.35;;;6.03;;
37955;SDS011;23776;51.592;7.180;2023-02-04T13:40:49;25.85;;;5.75;;
37955;SDS011;23776;51.592;7.180;2023-02-04T13:43:14;31.48;;;6.97;;
37955;SDS011;23776;51.592;7.180;2023-02-04T13:45:40;34.55;;;6.80;;
37955;SDS011;23776;51.592;7.180;2023-02-04T13:48:11;35.65;;;8.90;;
37955;SDS011;23776;51.592;7.180;2023-02-04T13:50:37;20.17;;;5.38;;
37955;SDS011;23776;51.592;7.180;2023-02-04T13:53:02;29.13;;;6.28;;
37955;SDS011;23776;51.592;7.180;2023-02-04T13:55:28;29.70;;;6.05;;
37955;SDS011;23776;51.592;7.180;2023-02-04T13:57:53;30.08;;;6.00;;
37955;SDS011;23776;51.592;7.180;2023-02-04T14:00:19;36.75;;;8.00;;
37955;SDS011;23776;51.592;7.180;2023-02-04T14:02:45;24.05;;;5.68;;
37955;SDS011;23776;51.592;7.180;2023-02-04T14:05:12;24.65;;;5.68;;
37955;SDS011;23776;51.592;7.180;2023-02-04T14:07:38;32.50;;;7.47;;
37955;SDS011;23776;51.592;7.180;2023-02-04T14:10:04;30.25;;;8.43;;
37955;SDS011;23776;51.592;7.180;2023-02-04T14:12:30;28.92;;;5.82;;
37955;SDS011;23776;51.592;7.180;2023-02-04T14:14:55;23.85;;;5.35;;
37955;SDS011;23776;51.592;7.180;2023-02-04T14:17:21;21.98;;;7.03;;
37955;SDS011;23776;51.592;7.180;2023-02-04T14:19:46;24.33;;;6.03;;
37955;SDS011;23776;51.592;7.180;2023-02-04T14:22:12;37.28;;;7.63;;
37955;SDS011;23776;51.592;7.180;2023-02-04T14:24:37;19.73;;;6.15;;
37955;SDS011;23776;51.592;7.180;2023-02-04T14:27:05;25.88;;;7.18;;
37955;SDS011;23776;51.592;7.180;2023-02-04T14:29:32;25.73;;;7.05;;
37955;SDS011;23776;51.592;7.180;2023-02-04T14:31:58;33.28;;;6.82;;
37955;SDS011;23776;51.592;7.180;2023-02-04T14:34:24;31.52;;;6.03;;
37955;SDS011;23776;51.592;7.180;2023-02-04T14:36:49;33.85;;;6.47;;
37955;SDS011;23776;51.592;7.180;2023-02-04T14:39:15;26.30;;;7.10;;
37955;SDS011;23776;51.592;7.180;2023-02-04T14:41:40;23.08;;;5.88;;
37955;SDS011;23776;51.592;7.180;2023-02-04T14:44:06;34.85;;;7.90;;
37955;SDS011;23776;51.592;7.180;2023-02-04T14:46:32;23.25;;;6.05;;
37955;SDS011;23776;51.592;7.180;2023-02-04T14:48:58;28.95;;;5.75;;
37955;SDS011;23776;51.592;7.180;2023-02-04T14:51:23;23.88;;;5.80;;